Time;durP1;ratioP1;P1;durP2;ratioP2;P2;SDS_P1;SDS_P2;PMS_P1;PMS_P2;Temp;Humidity;BMP_temperature;BMP_pressure;BME280_temperature;BME280_humidity;BME280_pressure;Samples;Min_cycle;Max_cycle;Signal;HPM_P1;HPM_P2
2022/07/12 00:02:21;;;;;;;5.43;2.60;;;;;;;;;;4994459;28;20026;-79
2022/07/12 00:04:47;;;;;;;5.10;2.60;;;;;;;;;;5000101;28;20026;-79
2022/07/12 00:07:13;;;;;;;5.45;2.90;;;;;;;;;;4996418;28;20484;-80
2022/07/12 00:09:39;;;;;;;5.35;2.47;;;;;;;;;;4976012;28;20055;-78
2022/07/12 00:12:05;;;;;;;5.88;2.40;;;;;;;;;;4990556;28;20104;-78
2022/07/12 00:14:31;;;;;;;5.32;2.50;;;;;;;;;;4996292;28;20030;-78
2022/07/12 00:16:57;;;;;;;4.95;2.80;;;;;;;;;;4992979;28;20153;-78
2022/07/12 00:19:23;;;;;;;5.32;2.83;;;;;;;;;;5006898;28;20100;-78
2022/07/12 00:21:50;;;;;;;6.00;3.05;;;;;;;;;;4995039;28;20026;-79
2022/07/12 00:24:16;;;;;;;5.93;3.13;;;;;;;;;;5003232;28;20034;-80
2022/07/12 00:26:42;;;;;;;4.88;2.67;;;;;;;;;;4993228;28;20065;-80
2022/07/12 00:29:08;;;;;;;5.50;3.03;;;;;;;;;;5011427;28;20061;-79
2022/07/12 00:31:34;;;;;;;6.07;3.05;;;;;;;;;;5002557;28;20022;-80
2022/07/12 00:34:00;;;;;;;9.18;3.03;;;;;;;;;;5004249;28;20034;-79
2022/07/12 00:36:26;;;;;;;5.63;2.42;;;;;;;;;;4993995;28;20042;-80
2022/07/12 00:38:52;;;;;;;5.70;2.97;;;;;;;;;;4993334;28;20042;-79
2022/07/12 00:41:19;;;;;;;6.32;2.85;;;;;;;;;;4994507;28;20024;-79
2022/07/12 00:43:45;;;;;;;4.68;2.85;;;;;;;;;;5001655;28;20381;-80
2022/07/12 00:46:11;;;;;;;5.82;2.78;;;;;;;;;;4996501;28;20030;-80
2022/07/12 00:48:37;;;;;;;4.97;2.53;;;;;;;;;;4994700;28;20034;-80
2022/07/12 00:51:03;;;;;;;4.80;2.55;;;;;;;;;;4993533;28;20026;-80
2022/07/12 00:53:29;;;;;;;5.05;2.55;;;;;;;;;;4997800;28;20037;-79
2022/07/12 00:55:59;;;;;;;5.00;2.47;;;;;;;;;;4989596;28;20507;-80
2022/07/12 00:58:25;;;;;;;5.32;2.60;;;;;;;;;;4994296;28;20033;-79
2022/07/12 01:00:51;;;;;;;4.82;2.53;;;;;;;;;;4992762;28;20034;-80
2022/07/12 01:03:17;;;;;;;5.93;3.05;;;;;;;;;;4991600;28;20039;-80
2022/07/12 01:05:44;;;;;;;4.95;2.83;;;;;;;;;;5007673;28;20022;-80
2022/07/12 01:08:11;;;;;;;4.75;2.85;;;;;;;;;;5013750;28;20017;-79
2022/07/12 01:10:38;;;;;;;4.80;2.45;;;;;;;;;;5000849;28;20031;-79
2022/07/12 01:13:04;;;;;;;4.03;2.17;;;;;;;;;;4992423;28;20551;-79
2022/07/12 01:15:30;;;;;;;4.80;2.50;;;;;;;;;;4992411;28;20602;-80
2022/07/12 01:17:56;;;;;;;5.38;2.85;;;;;;;;;;4991944;28;20034;-80
2022/07/12 01:20:23;;;;;;;5.10;2.58;;;;;;;;;;4992253;28;20031;-80
2022/07/12 01:22:57;;;;;;;4.72;2.65;;;;;;;;;;4991950;28;20057;-79
2022/07/12 01:25:24;;;;;;;4.70;2.50;;;;;;;;;;4991681;28;20057;-79
2022/07/12 01:27:50;;;;;;;5.28;2.40;;;;;;;;;;4993618;28;20038;-80
2022/07/12 01:30:16;;;;;;;4.50;2.50;;;;;;;;;;4997191;28;20022;-80
2022/07/12 01:32:42;;;;;;;5.00;2.55;;;;;;;;;;4992925;28;20476;-79
2022/07/12 01:35:09;;;;;;;5.82;2.80;;;;;;;;;;4992106;28;20092;-80
2022/07/12 01:37:36;;;;;;;6.35;3.00;;;;;;;;;;4993672;28;20030;-79
2022/07/12 01:40:03;;;;;;;5.35;2.78;;;;;;;;;;4993502;28;20034;-80
2022/07/12 01:42:30;;;;;;;5.13;2.38;;;;;;;;;;5010850;28;20030;-79
2022/07/12 01:44:56;;;;;;;5.53;2.80;;;;;;;;;;4995612;28;20035;-81
2022/07/12 01:47:23;;;;;;;5.07;2.85;;;;;;;;;;4999369;28;20034;-81
2022/07/12 01:49:49;;;;;;;6.18;2.63;;;;;;;;;;4999201;28;20027;-81
2022/07/12 01:52:16;;;;;;;5.07;2.28;;;;;;;;;;5011802;28;20026;-81
2022/07/12 01:54:42;;;;;;;6.50;2.55;;;;;;;;;;4996584;28;20125;-81
2022/07/12 01:57:08;;;;;;;4.65;2.30;;;;;;;;;;4998103;28;20126;-81
2022/07/12 01:59:35;;;;;;;5.20;2.50;;;;;;;;;;4999055;28;20117;-80
2022/07/12 02:02:02;;;;;;;4.88;2.45;;;;;;;;;;4998009;28;20109;-81
2022/07/12 02:04:28;;;;;;;5.00;2.70;;;;;;;;;;4998562;28;20037;-81
2022/07/12 02:06:54;;;;;;;4.18;2.33;;;;;;;;;;4997936;28;20077;-81
2022/07/12 02:09:21;;;;;;;5.55;2.80;;;;;;;;;;5016671;28;20040;-81
2022/07/12 02:11:47;;;;;;;4.88;2.60;;;;;;;;;;5010662;28;20057;-81
2022/07/12 02:14:13;;;;;;;5.40;2.90;;;;;;;;;;4998771;28;20081;-81
2022/07/12 02:16:40;;;;;;;4.80;2.60;;;;;;;;;;5005234;28;20032;-81
2022/07/12 02:19:06;;;;;;;4.78;2.65;;;;;;;;;;4998843;28;20125;-79
2022/07/12 02:21:32;;;;;;;6.45;2.78;;;;;;;;;;4998762;28;20022;-81
2022/07/12 02:23:58;;;;;;;4.80;2.50;;;;;;;;;;4998843;28;20027;-81
2022/07/12 02:26:24;;;;;;;4.80;2.72;;;;;;;;;;5009507;28;20589;-81
2022/07/12 02:28:50;;;;;;;4.93;2.70;;;;;;;;;;5012580;28;20035;-81
2022/07/12 02:31:16;;;;;;;4.45;2.30;;;;;;;;;;4998194;28;20022;-81
2022/07/12 02:33:42;;;;;;;4.55;2.50;;;;;;;;;;4998021;28;20073;-81
2022/07/12 02:36:09;;;;;;;4.65;2.42;;;;;;;;;;5008450;28;20033;-81
2022/07/12 02:38:35;;;;;;;4.32;2.33;;;;;;;;;;4999260;28;20022;-81
2022/07/12 02:41:01;;;;;;;5.47;2.60;;;;;;;;;;4998830;28;20504;-80
2022/07/12 02:43:28;;;;;;;5.22;2.60;;;;;;;;;;5014111;28;20026;-81
2022/07/12 02:45:56;;;;;;;4.75;2.25;;;;;;;;;;4999063;28;20034;-81
2022/07/12 02:48:22;;;;;;;4.35;2.45;;;;;;;;;;5004344;28;20054;-81
2022/07/12 02:50:48;;;;;;;5.30;2.40;;;;;;;;;;4997426;28;20043;-81
2022/07/12 02:53:15;;;;;;;4.97;2.85;;;;;;;;;;5002052;28;20026;-81
2022/07/12 02:55:41;;;;;;;4.85;2.63;;;;;;;;;;5022152;28;20028;-77
2022/07/12 02:58:07;;;;;;;5.32;2.53;;;;;;;;;;5025134;28;20020;-78
2022/07/12 03:00:34;;;;;;;5.38;2.80;;;;;;;;;;4998508;28;20026;-81
2022/07/12 03:03:00;;;;;;;4.85;2.47;;;;;;;;;;5001914;28;20034;-81
2022/07/12 03:05:26;;;;;;;5.55;2.30;;;;;;;;;;4996811;28;20378;-81
2022/07/12 03:07:52;;;;;;;5.05;2.60;;;;;;;;;;5002389;28;20033;-81
2022/07/12 03:10:18;;;;;;;5.85;2.60;;;;;;;;;;4997841;28;20027;-81
2022/07/12 03:12:44;;;;;;;6.00;2.45;;;;;;;;;;5008575;28;20034;-81
2022/07/12 03:15:10;;;;;;;4.82;2.42;;;;;;;;;;5006167;28;20041;-80
2022/07/12 03:17:36;;;;;;;5.43;2.63;;;;;;;;;;4997274;28;20031;-80
2022/07/12 03:20:04;;;;;;;4.47;2.13;;;;;;;;;;4998945;28;20069;-81
2022/07/12 03:22:30;;;;;;;5.28;3.10;;;;;;;;;;5006366;28;20022;-79
2022/07/12 03:24:56;;;;;;;5.47;2.78;;;;;;;;;;5010625;28;20028;-81
2022/07/12 03:27:23;;;;;;;4.60;2.38;;;;;;;;;;4997801;28;20484;-81
2022/07/12 03:29:49;;;;;;;5.00;2.50;;;;;;;;;;4997028;28;20101;-81
2022/07/12 03:32:15;;;;;;;6.60;2.75;;;;;;;;;;5004088;28;20087;-81
2022/07/12 03:34:41;;;;;;;4.38;2.33;;;;;;;;;;5012098;28;20043;-79
2022/07/12 03:37:07;;;;;;;5.13;2.80;;;;;;;;;;4997421;28;20042;-80
2022/07/12 03:39:33;;;;;;;5.07;2.58;;;;;;;;;;4997890;28;20039;-81
2022/07/12 03:41:59;;;;;;;5.15;2.88;;;;;;;;;;4999736;28;20080;-80
2022/07/12 03:44:25;;;;;;;4.88;2.58;;;;;;;;;;4997449;28;20554;-81
2022/07/12 03:46:51;;;;;;;4.93;2.63;;;;;;;;;;5007090;28;20489;-80
2022/07/12 03:49:18;;;;;;;5.30;2.33;;;;;;;;;;5000554;28;20030;-81
2022/07/12 03:51:43;;;;;;;5.22;2.55;;;;;;;;;;5002093;28;20534;-81
2022/07/12 03:54:10;;;;;;;6.38;2.63;;;;;;;;;;5019756;28;20030;-80
2022/07/12 03:59:21;;;;;;;4.95;2.13;;;;;;;;;;4999824;28;20177;-80
2022/07/12 04:01:48;;;;;;;5.82;2.50;;;;;;;;;;5016127;28;20021;-81
2022/07/12 04:04:14;;;;;;;5.22;2.40;;;;;;;;;;5020355;28;20077;-81
2022/07/12 04:06:40;;;;;;;4.75;2.50;;;;;;;;;;5013960;28;20026;-81
2022/07/12 04:09:07;;;;;;;5.03;2.65;;;;;;;;;;5005190;28;20066;-81
2022/07/12 04:11:33;;;;;;;4.80;2.45;;;;;;;;;;5000510;28;20022;-81
2022/07/12 04:13:59;;;;;;;5.30;2.53;;;;;;;;;;5000236;28;20030;-81
2022/07/12 04:16:26;;;;;;;6.13;2.58;;;;;;;;;;5002351;28;20038;-81
2022/07/12 04:18:53;;;;;;;6.25;2.70;;;;;;;;;;4998436;28;20091;-80
2022/07/12 04:21:20;;;;;;;10.63;4.85;;;;;;;;;;5000266;28;20393;-81
2022/07/12 04:23:46;;;;;;;5.45;2.63;;;;;;;;;;5000676;28;20026;-81
2022/07/12 04:26:12;;;;;;;5.97;2.65;;;;;;;;;;4999873;28;20314;-79
2022/07/12 04:28:38;;;;;;;7.57;3.42;;;;;;;;;;4994442;28;20022;-80
2022/07/12 04:31:04;;;;;;;5.22;2.50;;;;;;;;;;4998522;28;20073;-81
2022/07/12 04:33:30;;;;;;;6.38;2.80;;;;;;;;;;4998371;28;20107;-81
2022/07/12 04:35:56;;;;;;;5.82;2.40;;;;;;;;;;5007827;28;20112;-81
2022/07/12 04:38:22;;;;;;;4.65;2.60;;;;;;;;;;5002839;28;20085;-81
2022/07/12 04:40:48;;;;;;;5.50;2.63;;;;;;;;;;5000336;28;20098;-80
2022/07/12 04:43:14;;;;;;;5.00;2.45;;;;;;;;;;5005368;28;20117;-81
2022/07/12 04:45:43;;;;;;;6.35;3.25;;;;;;;;;;5002337;28;20029;-81
2022/07/12 04:48:10;;;;;;;4.65;2.40;;;;;;;;;;4999094;28;20022;-81
2022/07/12 04:50:36;;;;;;;6.10;2.35;;;;;;;;;;4998863;28;20030;-81
2022/07/12 04:53:02;;;;;;;4.15;2.15;;;;;;;;;;4997462;28;20062;-82
2022/07/12 04:55:28;;;;;;;6.40;2.88;;;;;;;;;;5007480;28;20033;-81
2022/07/12 04:57:54;;;;;;;5.45;2.47;;;;;;;;;;5000544;28;20425;-82
2022/07/12 05:00:20;;;;;;;4.97;2.60;;;;;;;;;;4997242;28;20097;-80
2022/07/12 05:02:46;;;;;;;4.97;2.53;;;;;;;;;;4997665;28;20053;-81
2022/07/12 05:05:12;;;;;;;4.32;2.08;;;;;;;;;;5001792;28;20045;-81
2022/07/12 05:07:38;;;;;;;5.50;2.63;;;;;;;;;;4997837;28;20093;-81
2022/07/12 05:10:05;;;;;;;4.45;2.40;;;;;;;;;;5012268;28;20037;-82
2022/07/12 05:12:31;;;;;;;3.80;2.13;;;;;;;;;;5005302;28;20064;-82
2022/07/12 05:14:57;;;;;;;4.63;2.47;;;;;;;;;;4995166;28;20062;-82
2022/07/12 05:17:23;;;;;;;3.83;1.98;;;;;;;;;;5000696;28;20050;-82
2022/07/12 05:19:49;;;;;;;5.10;2.20;;;;;;;;;;5002656;28;20062;-81
2022/07/12 05:22:15;;;;;;;4.00;1.95;;;;;;;;;;5002342;28;20030;-83
2022/07/12 05:24:41;;;;;;;4.47;1.70;;;;;;;;;;5012182;28;20036;-82
2022/07/12 05:27:07;;;;;;;4.35;1.95;;;;;;;;;;5015209;28;20015;-83
2022/07/12 05:29:32;;;;;;;3.92;1.88;;;;;;;;;;4999837;28;20499;-82
2022/07/12 05:32:01;;;;;;;5.65;2.10;;;;;;;;;;5003585;28;20034;-81
2022/07/12 05:34:27;;;;;;;5.65;2.70;;;;;;;;;;5014323;28;20033;-82
2022/07/12 05:36:53;;;;;;;4.85;2.03;;;;;;;;;;5004112;28;20038;-81
2022/07/12 05:39:19;;;;;;;3.97;2.20;;;;;;;;;;4999983;28;20042;-82
2022/07/12 05:41:46;;;;;;;3.88;1.80;;;;;;;;;;4997405;28;20022;-82
2022/07/12 05:44:12;;;;;;;6.05;1.90;;;;;;;;;;5004498;28;20124;-81
2022/07/12 05:46:40;;;;;;;4.35;1.70;;;;;;;;;;4998313;28;20053;-82
2022/07/12 05:49:06;;;;;;;3.40;1.70;;;;;;;;;;4996371;28;20034;-81
2022/07/12 05:54:17;;;;;;;4.55;2.30;;;;;;;;;;4997862;28;20511;-82
2022/07/12 05:56:43;;;;;;;4.40;1.70;;;;;;;;;;4994240;28;20026;-81
2022/07/12 05:59:09;;;;;;;4.22;1.80;;;;;;;;;;5001695;28;20158;-82
2022/07/12 06:01:35;;;;;;;3.97;1.77;;;;;;;;;;4999385;28;20160;-80
2022/07/12 06:04:01;;;;;;;3.60;1.67;;;;;;;;;;5023436;28;20026;-81
2022/07/12 06:06:28;;;;;;;4.85;1.70;;;;;;;;;;5012905;28;20030;-82
2022/07/12 06:08:54;;;;;;;3.53;1.63;;;;;;;;;;4994467;28;20065;-80
2022/07/12 06:11:20;;;;;;;3.50;1.60;;;;;;;;;;4997150;28;20030;-82
2022/07/12 06:13:46;;;;;;;3.45;1.45;;;;;;;;;;5004751;28;20413;-83
2022/07/12 06:16:12;;;;;;;3.72;1.73;;;;;;;;;;4996572;28;20030;-82
2022/07/12 06:18:38;;;;;;;4.00;1.73;;;;;;;;;;5009879;28;20022;-83
2022/07/12 06:21:04;;;;;;;4.78;1.73;;;;;;;;;;4996584;28;20061;-81
2022/07/12 06:23:31;;;;;;;3.70;1.77;;;;;;;;;;4991906;28;20090;-80
2022/07/12 06:25:57;;;;;;;3.85;1.80;;;;;;;;;;4994571;28;20032;-81
2022/07/12 06:28:23;;;;;;;4.25;1.52;;;;;;;;;;4995738;28;20034;-82
2022/07/12 06:30:49;;;;;;;3.00;1.50;;;;;;;;;;4996179;28;20180;-82
2022/07/12 06:33:15;;;;;;;3.92;1.40;;;;;;;;;;4995486;28;20369;-82
2022/07/12 06:35:41;;;;;;;4.70;2.00;;;;;;;;;;4994661;28;20046;-81
2022/07/12 06:38:07;;;;;;;3.55;1.70;;;;;;;;;;4995674;28;20042;-82
2022/07/12 06:40:33;;;;;;;3.90;1.60;;;;;;;;;;4995124;28;20030;-82
2022/07/12 06:42:59;;;;;;;4.65;1.83;;;;;;;;;;4996276;28;20030;-83
2022/07/12 06:45:25;;;;;;;3.90;1.70;;;;;;;;;;5013840;28;20480;-82
2022/07/12 06:47:51;;;;;;;4.05;1.60;;;;;;;;;;5011316;28;20026;-83
2022/07/12 06:50:18;;;;;;;4.70;1.80;;;;;;;;;;4994459;28;20113;-82
2022/07/12 06:52:43;;;;;;;3.95;1.88;;;;;;;;;;4997479;28;20034;-82
2022/07/12 06:55:10;;;;;;;4.30;1.60;;;;;;;;;;5000019;28;20080;-82
2022/07/12 06:57:37;;;;;;;3.45;1.70;;;;;;;;;;5004748;28;20116;-82
2022/07/12 07:00:04;;;;;;;5.10;1.95;;;;;;;;;;5016870;28;20072;-82
2022/07/12 07:02:30;;;;;;;3.75;1.67;;;;;;;;;;5016804;28;20022;-80
2022/07/12 07:04:56;;;;;;;4.45;1.60;;;;;;;;;;5016920;28;20449;-82
2022/07/12 07:07:22;;;;;;;3.10;1.40;;;;;;;;;;5012321;28;20052;-82
2022/07/12 07:09:48;;;;;;;4.20;1.88;;;;;;;;;;4996265;28;20096;-82
2022/07/12 07:12:14;;;;;;;4.03;1.77;;;;;;;;;;5007474;28;20060;-81
2022/07/12 07:14:40;;;;;;;3.38;1.65;;;;;;;;;;5013824;28;20026;-83
2022/07/12 07:17:06;;;;;;;4.53;1.50;;;;;;;;;;5013517;28;20317;-84
2022/07/12 07:19:32;;;;;;;4.97;1.80;;;;;;;;;;5001064;28;20030;-82
2022/07/12 07:21:58;;;;;;;4.55;1.88;;;;;;;;;;5016949;28;20026;-82
2022/07/12 07:24:25;;;;;;;4.03;1.67;;;;;;;;;;5011699;28;20014;-81
2022/07/12 07:26:51;;;;;;;7.72;2.13;;;;;;;;;;5007256;28;20034;-82
2022/07/12 07:32:02;;;;;;;6.25;1.65;;;;;;;;;;4998840;28;20124;-82
2022/07/12 07:34:28;;;;;;;4.15;1.95;;;;;;;;;;5001377;28;20026;-81
2022/07/12 07:36:54;;;;;;;4.25;1.70;;;;;;;;;;5017207;28;20523;-82
2022/07/12 07:39:21;;;;;;;3.55;1.40;;;;;;;;;;5014085;28;20035;-82
2022/07/12 07:41:47;;;;;;;4.40;1.60;;;;;;;;;;5000252;28;20038;-81
2022/07/12 07:44:13;;;;;;;4.10;1.83;;;;;;;;;;4998703;28;20392;-82
2022/07/12 07:46:39;;;;;;;4.60;1.80;;;;;;;;;;5018852;28;20477;-81
2022/07/12 07:49:05;;;;;;;3.90;1.70;;;;;;;;;;5017447;28;20112;-81
2022/07/12 07:51:31;;;;;;;3.90;1.42;;;;;;;;;;5020465;28;20030;-80
2022/07/12 07:53:57;;;;;;;2.97;1.50;;;;;;;;;;5022159;28;20413;-81
2022/07/12 07:56:23;;;;;;;5.55;1.70;;;;;;;;;;5009502;28;20031;-81
2022/07/12 07:58:51;;;;;;;3.20;1.60;;;;;;;;;;5015296;28;20097;-81
2022/07/12 08:01:17;;;;;;;4.15;1.73;;;;;;;;;;5019037;28;20014;-81
2022/07/12 08:03:43;;;;;;;4.55;1.95;;;;;;;;;;5017099;28;20040;-81
2022/07/12 08:06:09;;;;;;;4.00;1.80;;;;;;;;;;5016115;28;20018;-81
2022/07/12 08:08:35;;;;;;;3.83;1.58;;;;;;;;;;5002725;28;20019;-81
2022/07/12 08:11:01;;;;;;;3.28;1.48;;;;;;;;;;4999403;28;20053;-82
2022/07/12 08:13:27;;;;;;;4.07;1.45;;;;;;;;;;4998371;28;20053;-82
2022/07/12 08:15:53;;;;;;;3.70;1.50;;;;;;;;;;5009326;28;20045;-81
2022/07/12 08:18:21;;;;;;;3.72;1.60;;;;;;;;;;5016781;28;20029;-81
2022/07/12 08:20:47;;;;;;;5.07;1.58;;;;;;;;;;5018635;28;20383;-81
2022/07/12 08:23:13;;;;;;;3.03;1.38;;;;;;;;;;5018411;28;20021;-81
2022/07/12 08:25:39;;;;;;;3.22;1.40;;;;;;;;;;5015245;28;20057;-81
2022/07/12 08:28:05;;;;;;;3.30;1.50;;;;;;;;;;5007007;28;20034;-81
2022/07/12 08:30:31;;;;;;;4.60;1.80;;;;;;;;;;5009982;28;20025;-80
2022/07/12 08:32:57;;;;;;;3.53;1.50;;;;;;;;;;5016961;28;20033;-81
2022/07/12 08:35:23;;;;;;;4.28;1.67;;;;;;;;;;5017918;28;20427;-82
2022/07/12 08:37:49;;;;;;;3.40;1.40;;;;;;;;;;5016262;28;20033;-82
2022/07/12 08:40:15;;;;;;;3.83;1.38;;;;;;;;;;5013474;28;20041;-81
2022/07/12 08:42:42;;;;;;;4.78;1.30;;;;;;;;;;4998709;28;20030;-81
2022/07/12 08:45:09;;;;;;;3.10;1.30;;;;;;;;;;4999021;28;20021;-80
2022/07/12 08:47:35;;;;;;;2.38;1.27;;;;;;;;;;5007235;28;20025;-79
2022/07/12 08:50:11;;;;;;;2.88;1.08;;;;;;;;;;5021297;28;20037;-80
2022/07/12 08:52:41;;;;;;;2.92;1.20;;;;;;;;;;5024318;28;20037;-80
2022/07/12 08:55:22;;;;;;;4.60;1.40;;;;;;;;;;5000855;28;20027;-78
2022/07/12 08:57:49;;;;;;;2.80;1.00;;;;;;;;;;5001065;28;20034;-78
2022/07/12 09:00:15;;;;;;;3.30;1.00;;;;;;;;;;5009852;28;20026;-79
2022/07/12 09:02:45;;;;;;;3.33;0.93;;;;;;;;;;5015644;28;20026;-79
2022/07/12 09:05:11;;;;;;;3.65;1.00;;;;;;;;;;5015620;28;20104;-80
2022/07/12 09:07:38;;;;;;;3.08;1.33;;;;;;;;;;4991127;28;20070;-79
2022/07/12 09:10:08;;;;;;;2.90;1.10;;;;;;;;;;4998421;28;20540;-78
2022/07/12 09:12:34;;;;;;;3.05;1.00;;;;;;;;;;4993813;28;20030;-80
2022/07/12 09:15:19;;;;;;;2.67;1.05;;;;;;;;;;4993545;28;20329;-79
2022/07/12 09:18:02;;;;;;;5.50;1.40;;;;;;;;;;4987977;28;20033;-79
2022/07/12 09:20:29;;;;;;;2.75;1.00;;;;;;;;;;5014059;28;20030;-79
2022/07/12 09:23:03;;;;;;;3.03;1.00;;;;;;;;;;5014641;28;20025;-80
2022/07/12 09:25:30;;;;;;;2.22;1.00;;;;;;;;;;4996339;28;20023;-80
2022/07/12 09:27:58;;;;;;;3.33;1.00;;;;;;;;;;5004152;28;20018;-83
2022/07/12 09:30:25;;;;;;;3.35;0.90;;;;;;;;;;5014890;28;20030;-77
2022/07/12 09:38:21;;;;;;;2.83;1.10;;;;;;;;;;4996315;28;20040;-78
2022/07/12 09:40:49;;;;;;;2.50;0.90;;;;;;;;;;5007950;28;20407;-81
2022/07/12 09:43:16;;;;;;;2.53;1.05;;;;;;;;;;4997890;28;20038;-84
2022/07/12 09:45:43;;;;;;;3.72;0.93;;;;;;;;;;4997298;28;20041;-83
2022/07/12 09:48:11;;;;;;;5.32;1.20;;;;;;;;;;4996928;28;20034;-83
2022/07/12 09:50:38;;;;;;;3.15;1.13;;;;;;;;;;4999508;28;20057;-83
2022/07/12 09:53:04;;;;;;;2.40;0.95;;;;;;;;;;5016803;28;20030;-84
2022/07/12 09:55:33;;;;;;;3.58;1.05;;;;;;;;;;4999189;28;20037;-84
2022/07/12 09:58:01;;;;;;;2.25;0.90;;;;;;;;;;4997439;28;20026;-84
2022/07/12 10:00:27;;;;;;;4.75;1.00;;;;;;;;;;4994953;28;20058;-84
2022/07/12 10:02:55;;;;;;;2.88;1.10;;;;;;;;;;4993504;28;20087;-84
2022/07/12 10:05:21;;;;;;;2.72;0.95;;;;;;;;;;4997181;28;20080;-82
2022/07/12 10:07:47;;;;;;;2.90;1.10;;;;;;;;;;5009933;28;20026;-82
2022/07/12 10:10:14;;;;;;;2.75;1.00;;;;;;;;;;5005448;28;20041;-82
2022/07/12 10:12:41;;;;;;;3.08;1.30;;;;;;;;;;4980819;28;20030;-83
2022/07/12 10:15:10;;;;;;;3.95;1.33;;;;;;;;;;4995223;28;20089;-83
2022/07/12 10:17:37;;;;;;;3.38;1.10;;;;;;;;;;4995461;28;20045;-84
2022/07/12 10:20:17;;;;;;;3.65;1.20;;;;;;;;;;4997189;28;20502;-84
2022/07/12 10:22:43;;;;;;;3.25;1.10;;;;;;;;;;4984472;28;20037;-84
2022/07/12 10:25:28;;;;;;;2.78;1.17;;;;;;;;;;4989841;28;20018;-82
2022/07/12 10:27:54;;;;;;;2.97;1.02;;;;;;;;;;4992391;28;20038;-81
2022/07/12 10:30:20;;;;;;;3.00;1.10;;;;;;;;;;4997818;28;20041;-83
2022/07/12 10:32:48;;;;;;;2.53;1.00;;;;;;;;;;4996972;28;20037;-81
2022/07/12 10:35:19;;;;;;;3.47;1.10;;;;;;;;;;4995721;28;20531;-79
2022/07/12 10:38:03;;;;;;;5.22;1.40;;;;;;;;;;4994740;28;20033;-80
2022/07/12 10:40:34;;;;;;;3.47;1.30;;;;;;;;;;5000712;28;20085;-80
2022/07/12 10:43:07;;;;;;;4.85;1.95;;;;;;;;;;5002846;28;20026;-79
2022/07/12 10:45:38;;;;;;;2.70;1.20;;;;;;;;;;5002298;28;20021;-81
2022/07/12 10:48:05;;;;;;;3.75;1.40;;;;;;;;;;5001581;28;20023;-81
2022/07/12 10:50:48;;;;;;;4.10;1.40;;;;;;;;;;4999321;28;20038;-80
2022/07/12 10:53:14;;;;;;;;;;;;;;;;;;5011296;28;20019;-80
2022/07/12 10:55:40;;;;;;;5.07;1.25;;;;;;;;;;4997431;28;19910;-81
2022/07/12 10:58:06;;;;;;;2.55;1.02;;;;;;;;;;4998789;28;20057;-80
2022/07/12 11:00:32;;;;;;;2.90;1.23;;;;;;;;;;5003435;28;20042;-81
2022/07/12 11:03:01;;;;;;;3.92;1.30;;;;;;;;;;5000475;28;20030;-81
2022/07/12 11:05:27;;;;;;;2.45;0.93;;;;;;;;;;5000949;28;20022;-81
2022/07/12 11:07:53;;;;;;;3.10;1.20;;;;;;;;;;5012148;28;20025;-81
2022/07/12 11:10:20;;;;;;;3.80;1.20;;;;;;;;;;5014054;28;20037;-81
2022/07/12 11:12:47;;;;;;;4.30;1.25;;;;;;;;;;5020201;28;20037;-80
2022/07/12 11:15:13;;;;;;;4.43;1.25;;;;;;;;;;5020865;28;20018;-80
2022/07/12 11:17:39;;;;;;;2.17;1.00;;;;;;;;;;5009761;28;20029;-82
2022/07/12 11:20:06;;;;;;;4.13;1.52;;;;;;;;;;5009766;28;20033;-81
2022/07/12 11:22:33;;;;;;;4.53;1.25;;;;;;;;;;5019790;28;20029;-81
2022/07/12 11:24:59;;;;;;;3.33;1.10;;;;;;;;;;5019686;28;20022;-81
2022/07/12 11:27:26;;;;;;;2.45;1.00;;;;;;;;;;5018781;28;20018;-81
2022/07/12 11:30:02;;;;;;;5.13;1.10;;;;;;;;;;5010853;28;20030;-81
2022/07/12 11:32:35;;;;;;;2.85;1.00;;;;;;;;;;5018232;28;20107;-81
2022/07/12 11:35:01;;;;;;;3.38;1.00;;;;;;;;;;5019716;28;20050;-80
2022/07/12 11:37:27;;;;;;;3.95;1.23;;;;;;;;;;5018473;28;20034;-81
2022/07/12 11:39:53;;;;;;;2.70;1.05;;;;;;;;;;5017817;28;20607;-80
2022/07/12 11:42:19;;;;;;;2.67;1.10;;;;;;;;;;5019357;28;20065;-81
2022/07/12 11:44:46;;;;;;;3.20;1.17;;;;;;;;;;5019647;28;20018;-81
2022/07/12 11:47:13;;;;;;;6.28;1.30;;;;;;;;;;5017126;28;20109;-81
2022/07/12 11:49:44;;;;;;;5.22;1.30;;;;;;;;;;5012269;28;20440;-81
2022/07/12 11:52:12;;;;;;;3.58;1.20;;;;;;;;;;4999572;28;20075;-81
2022/07/12 11:54:38;;;;;;;3.78;1.27;;;;;;;;;;4999457;28;20053;-81
2022/07/12 11:57:11;;;;;;;3.30;1.20;;;;;;;;;;4999120;28;20038;-81
2022/07/12 11:59:37;;;;;;;3.95;1.20;;;;;;;;;;5015012;28;20026;-81
2022/07/12 12:02:07;;;;;;;3.55;1.20;;;;;;;;;;4999409;28;20027;-81
2022/07/12 12:04:54;;;;;;;4.15;1.23;;;;;;;;;;4999362;28;20022;-80
2022/07/12 12:07:21;;;;;;;3.22;1.20;;;;;;;;;;4996844;28;20022;-81
2022/07/12 12:09:59;;;;;;;2.78;0.90;;;;;;;;;;5001988;28;20435;-80
2022/07/12 12:12:25;;;;;;;3.38;1.20;;;;;;;;;;5018463;28;20030;-81
2022/07/12 12:14:51;;;;;;;3.38;1.10;;;;;;;;;;5000077;28;20034;-80
2022/07/12 12:17:17;;;;;;;4.05;1.20;;;;;;;;;;4998750;28;20038;-81
2022/07/12 12:19:44;;;;;;;2.90;1.17;;;;;;;;;;5008710;28;20030;-80
2022/07/12 12:22:33;;;;;;;3.15;1.08;;;;;;;;;;5015089;28;20022;-81
2022/07/12 12:25:00;;;;;;;2.92;1.10;;;;;;;;;;5000322;28;20080;-80
2022/07/12 12:27:26;;;;;;;3.38;1.30;;;;;;;;;;5002999;28;20026;-81
2022/07/12 12:29:52;;;;;;;4.20;1.13;;;;;;;;;;5016339;28;20030;-81
2022/07/12 12:32:18;;;;;;;3.15;1.23;;;;;;;;;;5019310;28;20084;-81
2022/07/12 12:35:04;;;;;;;3.47;1.02;;;;;;;;;;5018748;28;20041;-81
2022/07/12 12:37:30;;;;;;;2.80;1.20;;;;;;;;;;5017190;28;20025;-81
2022/07/12 12:39:56;;;;;;;3.63;0.95;;;;;;;;;;5013173;28;20040;-81
2022/07/12 12:42:26;;;;;;;4.07;1.63;;;;;;;;;;4995528;28;20385;-81
2022/07/12 12:44:52;;;;;;;2.90;1.10;;;;;;;;;;5016180;28;20435;-81
2022/07/12 12:47:30;;;;;;;5.10;1.30;;;;;;;;;;5000804;28;20022;-80
2022/07/12 12:50:00;;;;;;;3.95;1.40;;;;;;;;;;5008585;28;20045;-81
2022/07/12 12:52:27;;;;;;;2.40;1.00;;;;;;;;;;5018560;28;20033;-80
2022/07/12 12:54:53;;;;;;;5.60;1.27;;;;;;;;;;5018598;28;20045;-81
2022/07/12 12:57:20;;;;;;;4.55;1.02;;;;;;;;;;5014113;28;20030;-81
2022/07/12 12:59:46;;;;;;;2.72;1.00;;;;;;;;;;4999412;28;20030;-80
2022/07/12 13:02:12;;;;;;;3.38;1.20;;;;;;;;;;5009544;28;20408;-81
2022/07/12 13:04:39;;;;;;;4.72;1.80;;;;;;;;;;4996293;28;20029;-80
2022/07/12 13:07:06;;;;;;;3.65;1.50;;;;;;;;;;4995414;28;20014;-81
2022/07/12 13:09:32;;;;;;;3.35;1.05;;;;;;;;;;4996625;28;20031;-80
2022/07/12 13:11:59;;;;;;;4.07;1.30;;;;;;;;;;5011070;28;20109;-81
2022/07/12 13:14:25;;;;;;;3.17;1.30;;;;;;;;;;5012767;28;20040;-81
2022/07/12 13:16:52;;;;;;;4.07;1.40;;;;;;;;;;4997173;28;20094;-80
2022/07/12 13:19:19;;;;;;;5.63;1.38;;;;;;;;;;4993008;28;20081;-81
2022/07/12 13:21:45;;;;;;;4.63;1.30;;;;;;;;;;5001299;28;20465;-80
2022/07/12 13:24:11;;;;;;;3.63;1.20;;;;;;;;;;4996407;28;20045;-81
2022/07/12 13:26:37;;;;;;;3.25;1.20;;;;;;;;;;4988563;28;20022;-81
2022/07/12 13:29:03;;;;;;;2.63;1.10;;;;;;;;;;5010867;28;20084;-81
2022/07/12 13:31:29;;;;;;;4.68;1.27;;;;;;;;;;5014045;28;20042;-79
2022/07/12 13:33:56;;;;;;;2.67;1.20;;;;;;;;;;4995673;28;20034;-80
2022/07/12 13:36:22;;;;;;;2.45;1.08;;;;;;;;;;5000911;28;20035;-81
2022/07/12 13:38:48;;;;;;;3.83;1.33;;;;;;;;;;5012229;28;20507;-79
2022/07/12 13:41:14;;;;;;;3.92;1.02;;;;;;;;;;4985282;28;20039;-81
2022/07/12 13:43:41;;;;;;;4.45;1.10;;;;;;;;;;4986808;28;20094;-80
2022/07/12 13:46:07;;;;;;;3.88;1.27;;;;;;;;;;4996566;28;20049;-80
2022/07/12 13:48:33;;;;;;;2.85;1.13;;;;;;;;;;5004788;28;20420;-80
2022/07/12 13:50:59;;;;;;;5.57;1.55;;;;;;;;;;4997792;28;20053;-80
2022/07/12 13:53:26;;;;;;;3.55;1.23;;;;;;;;;;4996922;28;20042;-80
2022/07/12 13:55:52;;;;;;;2.65;1.05;;;;;;;;;;4996273;28;20103;-81
2022/07/12 13:58:18;;;;;;;3.05;1.10;;;;;;;;;;4993296;28;20035;-81
2022/07/12 14:00:44;;;;;;;2.75;1.13;;;;;;;;;;4998197;28;20045;-81
2022/07/12 14:03:10;;;;;;;4.93;1.00;;;;;;;;;;4994930;28;20162;-81
2022/07/12 14:05:37;;;;;;;3.67;1.50;;;;;;;;;;4995040;28;20069;-80
2022/07/12 14:08:03;;;;;;;3.22;1.08;;;;;;;;;;4996388;28;20030;-82
2022/07/12 14:10:30;;;;;;;3.42;0.95;;;;;;;;;;4997374;28;20109;-82
2022/07/12 14:12:56;;;;;;;2.65;0.88;;;;;;;;;;4996976;28;20057;-81
2022/07/12 14:15:37;;;;;;;4.13;0.90;;;;;;;;;;4994999;28;20041;-82
2022/07/12 14:18:05;;;;;;;4.13;1.25;;;;;;;;;;4996667;28;20085;-81
2022/07/12 14:20:31;;;;;;;2.53;0.90;;;;;;;;;;4996960;28;20480;-81
2022/07/12 14:22:57;;;;;;;3.63;1.23;;;;;;;;;;5006702;28;20467;-81
2022/07/12 14:25:23;;;;;;;3.90;1.40;;;;;;;;;;4996788;28;20520;-80
2022/07/12 14:27:49;;;;;;;2.30;0.90;;;;;;;;;;5000556;28;20057;-81
2022/07/12 14:30:15;;;;;;;3.67;1.20;;;;;;;;;;5003509;28;20527;-81
2022/07/12 14:32:41;;;;;;;3.90;1.00;;;;;;;;;;4994777;28;20094;-81
2022/07/12 14:35:08;;;;;;;3.70;1.67;;;;;;;;;;4996163;28;20512;-80
2022/07/12 14:37:37;;;;;;;2.20;0.90;;;;;;;;;;5003150;28;20034;-81
2022/07/12 14:40:04;;;;;;;2.90;0.95;;;;;;;;;;4999640;28;20037;-81
2022/07/12 14:42:30;;;;;;;3.92;1.30;;;;;;;;;;4996889;28;20030;-79
2022/07/12 14:44:56;;;;;;;4.03;1.25;;;;;;;;;;4995942;28;20019;-80
2022/07/12 14:47:23;;;;;;;2.47;1.00;;;;;;;;;;4995300;28;20053;-80
2022/07/12 14:49:49;;;;;;;2.55;0.82;;;;;;;;;;4996038;28;20022;-81
2022/07/12 14:52:16;;;;;;;2.97;1.27;;;;;;;;;;4995213;28;20496;-80
2022/07/12 14:54:42;;;;;;;2.95;1.02;;;;;;;;;;4996419;28;20114;-82
2022/07/12 14:57:08;;;;;;;2.88;1.10;;;;;;;;;;4999120;28;20049;-81